createdAt,value
2022-11-05T00:04:19.902Z,11.53
2022-11-05T00:05:19.916Z,11.51
2022-11-05T00:07:19.933Z,11.50
2022-11-05T00:10:19.931Z,11.49
2022-11-05T00:12:19.921Z,11.48
2022-11-05T00:13:19.987Z,11.47
2022-11-05T00:14:19.902Z,11.46
2022-11-05T00:17:19.928Z,11.49
2022-11-05T00:19:19.946Z,11.50
2022-11-05T00:20:19.956Z,11.52
2022-11-05T00:21:19.982Z,11.51
2022-11-05T00:23:19.987Z,11.52
2022-11-05T00:24:24.167Z,11.51
2022-11-05T00:25:19.962Z,11.50
2022-11-05T00:26:19.997Z,11.48
2022-11-05T00:27:19.953Z,11.47
2022-11-05T00:28:19.949Z,11.48
2022-11-05T00:30:19.942Z,11.50
2022-11-05T00:31:19.997Z,11.53
2022-11-05T00:32:19.966Z,11.55
2022-11-05T00:33:19.982Z,11.57
2022-11-05T00:34:19.994Z,11.60
2022-11-05T00:35:19.969Z,11.61
2022-11-05T00:37:19.981Z,11.60
2022-11-05T00:38:20.002Z,11.58
2022-11-05T00:39:19.995Z,11.59
2022-11-05T00:41:20.037Z,11.58
2022-11-05T00:42:19.984Z,11.57
2022-11-05T00:43:19.970Z,11.58
2022-11-05T00:45:19.999Z,11.60
2022-11-05T00:46:20.057Z,11.61
2022-11-05T00:47:19.995Z,11.63
2022-11-05T00:48:19.989Z,11.64
2022-11-05T00:51:20.040Z,11.65
2022-11-05T00:52:20.045Z,11.63
2022-11-05T00:53:20.032Z,11.61
2022-11-05T00:56:20.014Z,11.63
2022-11-05T00:58:20.035Z,11.64
2022-11-05T01:00:20.043Z,11.63
2022-11-05T01:01:20.235Z,11.64
2022-11-05T01:02:20.232Z,11.62
2022-11-05T01:03:20.043Z,11.58
2022-11-05T01:04:20.060Z,11.56
2022-11-05T01:05:20.052Z,11.50
2022-11-05T01:06:20.037Z,11.47
2022-11-05T01:07:20.048Z,11.45
2022-11-05T01:08:20.058Z,11.44
2022-11-05T01:10:20.065Z,11.45
2022-11-05T01:13:20.338Z,11.47
2022-11-05T01:14:20.105Z,11.50
2022-11-05T01:15:20.084Z,11.47
2022-11-05T01:16:20.052Z,11.45
2022-11-05T01:17:20.140Z,11.46
2022-11-05T01:18:20.054Z,11.47
2022-11-05T01:19:20.117Z,11.48
2022-11-05T01:20:20.082Z,11.49
2022-11-05T01:21:20.095Z,11.50
2022-11-05T01:22:20.121Z,11.52
2022-11-05T01:23:22.019Z,11.53
2022-11-05T01:24:20.097Z,11.54
2022-11-05T01:25:20.214Z,11.53
2022-11-05T01:26:20.111Z,11.52
2022-11-05T01:27:20.134Z,11.49
2022-11-05T01:28:20.188Z,11.48
2022-11-05T01:29:20.099Z,11.47
2022-11-05T01:30:20.169Z,11.49
2022-11-05T01:33:20.128Z,11.48
2022-11-05T01:34:20.134Z,11.46
2022-11-05T01:35:20.145Z,11.44
2022-11-05T01:36:20.144Z,11.41
2022-11-05T01:37:20.168Z,11.39
2022-11-05T01:41:20.115Z,11.37
2022-11-05T01:42:20.159Z,11.36
2022-11-05T01:43:20.128Z,11.35
2022-11-05T01:44:20.132Z,11.34
2022-11-05T01:45:20.183Z,11.35
2022-11-05T01:47:20.172Z,11.33
2022-11-05T01:49:20.181Z,11.34
2022-11-05T01:50:20.213Z,11.35
2022-11-05T01:52:20.161Z,11.36
2022-11-05T01:55:20.209Z,11.31
2022-11-05T01:56:20.163Z,11.29
2022-11-05T01:58:20.189Z,11.30
2022-11-05T01:59:20.169Z,11.31
2022-11-05T02:00:20.217Z,11.33
2022-11-05T02:01:20.325Z,11.35
2022-11-05T02:02:20.294Z,11.38
2022-11-05T02:03:20.214Z,11.41
2022-11-05T02:04:20.177Z,11.40
2022-11-05T02:05:20.174Z,11.34
2022-11-05T02:06:20.181Z,11.27
2022-11-05T02:07:20.175Z,11.18
2022-11-05T02:08:20.231Z,11.17
2022-11-05T02:09:20.207Z,11.15
2022-11-05T02:10:20.211Z,11.13
2022-11-05T02:11:20.198Z,11.10
2022-11-05T02:13:20.276Z,11.12
2022-11-05T02:14:20.199Z,11.13
2022-11-05T02:15:20.249Z,11.15
2022-11-05T02:16:20.240Z,11.18
2022-11-05T02:17:20.253Z,11.21
2022-11-05T02:18:20.261Z,11.22
2022-11-05T02:19:20.223Z,11.20
2022-11-05T02:20:20.242Z,11.18
2022-11-05T02:21:20.262Z,11.19
2022-11-05T02:22:20.233Z,11.20
2022-11-05T02:23:20.285Z,11.16
2022-11-05T02:24:20.219Z,11.13
2022-11-05T02:25:20.256Z,11.11
2022-11-05T02:26:20.287Z,11.13
2022-11-05T02:27:20.243Z,11.10
2022-11-05T02:28:20.277Z,11.11
2022-11-05T02:29:20.240Z,11.13
2022-11-05T02:30:20.240Z,11.16
2022-11-05T02:31:20.271Z,11.19
2022-11-05T02:32:20.290Z,11.18
2022-11-05T02:33:20.261Z,11.16
2022-11-05T02:35:20.262Z,11.15
2022-11-05T02:36:20.300Z,11.14
2022-11-05T02:37:20.284Z,11.15
2022-11-05T02:38:20.284Z,11.16
2022-11-05T02:39:20.278Z,11.09
2022-11-05T02:40:20.274Z,11.07
2022-11-05T02:41:20.314Z,11.06
2022-11-05T02:42:20.276Z,11.07
2022-11-05T02:43:20.277Z,11.08
2022-11-05T02:44:20.322Z,11.06
2022-11-05T02:45:20.282Z,11.07
2022-11-05T02:46:20.321Z,11.05
2022-11-05T02:47:20.301Z,11.02
2022-11-05T02:49:20.327Z,11.01
2022-11-05T02:50:20.282Z,11.02
2022-11-05T02:52:20.306Z,11.01
2022-11-05T02:53:20.320Z,10.99
2022-11-05T02:54:20.364Z,10.98
2022-11-05T02:55:20.304Z,10.97
2022-11-05T02:57:20.323Z,10.98
2022-11-05T02:59:20.353Z,10.99
2022-11-05T03:00:20.332Z,10.98
2022-11-05T03:01:20.406Z,10.96
2022-11-05T03:04:20.385Z,10.95
2022-11-05T03:05:20.337Z,10.98
2022-11-05T03:06:20.334Z,11.00
2022-11-05T03:07:20.375Z,11.03
2022-11-05T03:08:20.357Z,11.05
2022-11-05T03:09:20.361Z,11.07
2022-11-05T03:10:20.340Z,11.10
2022-11-05T03:14:20.401Z,11.12
2022-11-05T03:15:20.354Z,11.11
2022-11-05T03:16:20.349Z,11.14
2022-11-05T03:17:20.380Z,11.16
2022-11-05T03:19:20.391Z,11.17
2022-11-05T03:21:20.384Z,11.19
2022-11-05T03:22:20.407Z,11.16
2022-11-05T03:23:20.392Z,11.13
2022-11-05T03:24:20.402Z,11.11
2022-11-05T03:25:20.388Z,11.08
2022-11-05T03:26:20.373Z,11.06
2022-11-05T03:29:20.440Z,11.07
2022-11-05T03:30:20.397Z,11.08
2022-11-05T03:32:20.441Z,11.07
2022-11-05T03:34:20.509Z,11.02
2022-11-05T03:35:20.411Z,10.78
2022-11-05T03:36:20.401Z,10.76
2022-11-05T03:37:20.471Z,10.79
2022-11-05T03:38:20.422Z,10.84
2022-11-05T03:39:20.465Z,10.88
2022-11-05T03:40:20.458Z,10.84
2022-11-05T03:41:20.429Z,10.78
2022-11-05T03:42:20.456Z,10.79
2022-11-05T03:43:20.472Z,10.81
2022-11-05T03:44:20.421Z,10.85
2022-11-05T03:45:20.437Z,10.77
2022-11-05T03:46:20.453Z,10.76
2022-11-05T03:48:20.526Z,10.79
2022-11-05T03:49:20.448Z,10.83
2022-11-05T03:50:20.476Z,10.85
2022-11-05T03:51:20.462Z,10.84
2022-11-05T03:53:20.458Z,10.87
2022-11-05T03:54:20.461Z,10.92
2022-11-05T03:56:20.450Z,10.94
2022-11-05T03:57:20.471Z,10.95
2022-11-05T03:58:20.465Z,10.94
2022-11-05T03:59:20.466Z,10.96
2022-11-05T04:00:20.498Z,10.95
2022-11-05T04:02:20.600Z,10.96
2022-11-05T04:03:20.455Z,10.98
2022-11-05T04:04:20.468Z,11.00
2022-11-05T04:05:20.523Z,10.94
2022-11-05T04:06:20.499Z,10.87
2022-11-05T04:07:20.473Z,10.85
2022-11-05T04:08:20.523Z,10.80
2022-11-05T04:10:20.531Z,10.82
2022-11-05T04:11:20.530Z,10.85
2022-11-05T04:12:20.486Z,10.89
2022-11-05T04:13:20.541Z,10.91
2022-11-05T04:14:20.514Z,10.93
2022-11-05T04:15:20.539Z,10.96
2022-11-05T04:16:20.505Z,10.99
2022-11-05T04:17:20.505Z,11.01
2022-11-05T04:19:26.007Z,10.97
2022-11-05T04:20:20.523Z,10.95
2022-11-05T04:21:20.532Z,10.97
2022-11-05T04:24:20.554Z,10.98
2022-11-05T04:25:20.528Z,10.99
2022-11-05T04:26:20.573Z,10.95
2022-11-05T04:27:20.550Z,10.92
2022-11-05T04:28:20.614Z,10.89
2022-11-05T04:29:20.538Z,10.81
2022-11-05T04:30:20.732Z,10.79
2022-11-05T04:33:20.588Z,10.80
2022-11-05T04:34:20.554Z,10.81
2022-11-05T04:36:20.581Z,10.80
2022-11-05T04:39:20.554Z,10.82
2022-11-05T04:40:20.594Z,10.85
2022-11-05T04:41:20.619Z,10.88
2022-11-05T04:42:20.578Z,10.90
2022-11-05T04:43:20.920Z,10.91
2022-11-05T04:44:20.566Z,10.92
2022-11-05T04:45:20.579Z,10.94
2022-11-05T04:46:20.620Z,10.95
2022-11-05T04:47:20.619Z,10.98
2022-11-05T04:48:20.617Z,10.99
2022-11-05T04:49:20.585Z,11.01
2022-11-05T04:50:20.597Z,11.03
2022-11-05T04:51:20.646Z,11.04
2022-11-05T04:52:20.583Z,11.05
2022-11-05T04:54:20.627Z,11.07
2022-11-05T04:55:20.610Z,11.08
2022-11-05T04:56:20.638Z,11.06
2022-11-05T04:57:20.608Z,11.07
2022-11-05T04:58:20.652Z,11.06
2022-11-05T04:59:20.593Z,11.07
2022-11-05T05:02:20.723Z,11.06
2022-11-05T05:03:20.718Z,11.03
2022-11-05T05:04:20.634Z,11.02
2022-11-05T05:05:20.632Z,11.00
2022-11-05T05:06:20.736Z,10.99
2022-11-05T05:07:20.642Z,10.96
2022-11-05T05:08:20.686Z,10.91
2022-11-05T05:09:20.622Z,10.88
2022-11-05T05:10:20.636Z,10.85
2022-11-05T05:11:20.688Z,10.83
2022-11-05T05:12:20.651Z,10.82
2022-11-05T05:13:20.646Z,10.84
2022-11-05T05:14:20.667Z,10.86
2022-11-05T05:16:20.687Z,10.87
2022-11-05T05:17:20.661Z,10.85
2022-11-05T05:18:20.663Z,10.84
2022-11-05T05:19:20.694Z,10.85
2022-11-05T05:20:20.650Z,10.86
2022-11-05T05:21:20.691Z,10.89
2022-11-05T05:22:20.688Z,10.90
2022-11-05T05:23:20.671Z,10.84
2022-11-05T05:24:20.725Z,10.70
2022-11-05T05:25:20.682Z,10.67
2022-11-05T05:26:20.709Z,10.65
2022-11-05T05:27:20.677Z,10.66
2022-11-05T05:28:20.694Z,10.67
2022-11-05T05:30:20.688Z,10.66
2022-11-05T05:34:20.764Z,10.64
2022-11-05T05:35:20.726Z,10.63
2022-11-05T05:37:20.719Z,10.61
2022-11-05T05:38:20.774Z,10.57
2022-11-05T05:40:20.709Z,10.59
2022-11-05T05:41:20.743Z,10.60
2022-11-05T05:42:20.715Z,10.61
2022-11-05T05:43:20.721Z,10.59
2022-11-05T05:44:20.758Z,10.53
2022-11-05T05:46:20.727Z,10.56
2022-11-05T05:47:20.818Z,10.58
2022-11-05T05:48:20.933Z,10.60
2022-11-05T05:49:20.763Z,10.61
2022-11-05T05:50:20.770Z,10.62
2022-11-05T05:51:20.742Z,10.64
2022-11-05T05:53:20.735Z,10.65
2022-11-05T05:55:20.755Z,10.66
2022-11-05T05:56:20.742Z,10.64
2022-11-05T05:57:20.776Z,10.54
2022-11-05T05:58:20.746Z,10.51
2022-11-05T05:59:20.756Z,10.53
2022-11-05T06:00:20.833Z,10.55
2022-11-05T06:01:20.906Z,10.59
2022-11-05T06:02:20.966Z,10.62
2022-11-05T06:03:20.838Z,10.65
2022-11-05T06:04:20.791Z,10.68
2022-11-05T06:05:20.811Z,10.71
2022-11-05T06:06:20.799Z,10.73
2022-11-05T06:08:20.780Z,10.74
2022-11-05T06:10:20.850Z,10.75
2022-11-05T06:11:20.814Z,10.76
2022-11-05T06:12:20.817Z,10.78
2022-11-05T06:13:20.793Z,10.80
2022-11-05T06:14:20.838Z,10.83
2022-11-05T06:15:20.845Z,10.84
2022-11-05T06:16:20.784Z,10.83
2022-11-05T06:17:20.892Z,10.82
2022-11-05T06:18:20.830Z,10.84
2022-11-05T06:19:20.821Z,10.83
2022-11-05T06:20:20.849Z,10.82
2022-11-05T06:21:20.801Z,10.81
2022-11-05T06:23:20.832Z,10.78
2022-11-05T06:24:20.855Z,10.77
2022-11-05T06:25:20.834Z,10.76
2022-11-05T06:28:20.824Z,10.77
2022-11-05T06:29:20.877Z,10.76
2022-11-05T06:32:20.821Z,10.77
2022-11-05T06:34:20.892Z,10.67
2022-11-05T06:35:20.853Z,10.61
2022-11-05T06:37:20.848Z,10.64
2022-11-05T06:38:20.865Z,10.66
2022-11-05T06:39:20.879Z,10.67
2022-11-05T06:42:20.899Z,10.65
2022-11-05T06:43:20.886Z,10.60
2022-11-05T06:45:20.920Z,10.61
2022-11-05T06:46:20.859Z,10.62
2022-11-05T06:47:20.929Z,10.63
2022-11-05T06:48:20.871Z,10.67
2022-11-05T06:49:20.858Z,10.70
2022-11-05T06:50:20.891Z,10.74
2022-11-05T06:51:20.896Z,10.77
2022-11-05T06:52:20.921Z,10.79
2022-11-05T06:53:20.893Z,10.81
2022-11-05T06:56:20.907Z,10.82
2022-11-05T06:58:20.932Z,10.85
2022-11-05T06:59:20.921Z,10.87
2022-11-05T07:00:20.948Z,10.86
2022-11-05T07:01:21.096Z,10.81
2022-11-05T07:02:21.017Z,10.82
2022-11-05T07:03:20.933Z,10.84
2022-11-05T07:04:20.945Z,10.85
2022-11-05T07:05:20.944Z,10.86
2022-11-05T07:06:20.930Z,10.87
2022-11-05T07:07:20.942Z,10.88
2022-11-05T07:08:20.941Z,10.89
2022-11-05T07:09:20.937Z,10.90
2022-11-05T07:10:20.991Z,10.92
2022-11-05T07:11:20.953Z,10.93
2022-11-05T07:12:20.953Z,10.90
2022-11-05T07:13:20.986Z,10.87
2022-11-05T07:14:20.970Z,10.84
2022-11-05T07:15:20.976Z,10.79
2022-11-05T07:16:21.018Z,10.75
2022-11-05T07:17:20.965Z,10.73
2022-11-05T07:18:20.987Z,10.67
2022-11-05T07:19:20.941Z,10.64
2022-11-05T07:20:20.988Z,10.62
2022-11-05T07:21:20.969Z,10.61
2022-11-05T07:22:20.997Z,10.60
2022-11-05T07:23:20.994Z,10.58
2022-11-05T07:24:20.956Z,10.54
2022-11-05T07:25:21.016Z,10.52
2022-11-05T07:26:20.964Z,10.50
2022-11-05T07:28:21.050Z,10.51
2022-11-05T07:29:20.973Z,10.50
2022-11-05T07:30:21.024Z,10.45
2022-11-05T07:31:20.996Z,10.44
2022-11-05T07:33:21.015Z,10.46
2022-11-05T07:34:21.027Z,10.47
2022-11-05T07:35:21.035Z,10.48
2022-11-05T07:36:21.004Z,10.49
2022-11-05T07:37:21.002Z,10.50
2022-11-05T07:38:21.053Z,10.53
2022-11-05T07:39:21.009Z,10.55
2022-11-05T07:40:21.027Z,10.51
2022-11-05T07:42:21.032Z,10.50
2022-11-05T07:43:21.053Z,10.46
2022-11-05T07:44:21.038Z,10.44
2022-11-05T07:46:21.067Z,10.45
2022-11-05T07:47:21.033Z,10.46
2022-11-05T07:48:21.052Z,10.47
2022-11-05T07:49:21.034Z,10.49
2022-11-05T07:50:21.034Z,10.50
2022-11-05T07:53:21.068Z,10.52
2022-11-05T07:55:21.050Z,10.51
2022-11-05T07:56:21.061Z,10.50
2022-11-05T07:57:21.082Z,10.49
2022-11-05T07:58:21.117Z,10.48
2022-11-05T08:00:21.059Z,10.47
2022-11-05T08:01:21.299Z,10.42
2022-11-05T08:02:21.278Z,10.28
2022-11-05T08:03:21.598Z,10.29
2022-11-05T08:04:21.131Z,10.32
2022-11-05T08:05:21.076Z,10.35
2022-11-05T08:06:21.101Z,10.37
2022-11-05T08:07:21.081Z,10.36
2022-11-05T08:08:21.079Z,10.33
2022-11-05T08:09:21.107Z,10.36
2022-11-05T08:10:21.127Z,10.39
2022-11-05T08:11:21.123Z,10.43
2022-11-05T08:12:21.104Z,10.45
2022-11-05T08:13:21.089Z,10.49
2022-11-05T08:15:21.107Z,10.47
2022-11-05T08:16:21.169Z,10.48
2022-11-05T08:17:21.090Z,10.42
2022-11-05T08:18:21.092Z,10.27
2022-11-05T08:19:21.130Z,10.20
2022-11-05T08:20:21.111Z,10.21
2022-11-05T08:21:21.144Z,10.19
2022-11-05T08:22:21.136Z,10.23
2022-11-05T08:23:21.092Z,10.27
2022-11-05T08:24:21.156Z,10.16
2022-11-05T08:26:21.120Z,10.03
2022-11-05T08:27:21.136Z,9.86
2022-11-05T08:28:21.136Z,9.70
2022-11-05T08:29:21.149Z,9.60
2022-11-05T08:30:21.127Z,9.50
2022-11-05T08:31:21.120Z,9.58
2022-11-05T08:32:21.180Z,9.73
2022-11-05T08:33:21.130Z,9.88
2022-11-05T08:34:21.203Z,10.05
2022-11-05T08:35:21.137Z,10.08
2022-11-05T08:36:21.156Z,10.09
2022-11-05T08:37:21.183Z,10.14
2022-11-05T08:38:21.142Z,10.01
2022-11-05T08:39:21.172Z,9.94
2022-11-05T08:40:21.171Z,10.01
2022-11-05T08:41:21.143Z,9.92
2022-11-05T08:42:21.203Z,9.84
2022-11-05T08:43:21.145Z,9.83
2022-11-05T08:44:21.181Z,9.70
2022-11-05T08:45:21.164Z,9.69
2022-11-05T08:46:21.199Z,9.76
2022-11-05T08:48:21.183Z,9.63
2022-11-05T08:49:21.162Z,9.68
2022-11-05T08:50:21.189Z,9.80
2022-11-05T08:51:21.183Z,9.92
2022-11-05T08:52:21.243Z,10.08
2022-11-05T08:53:21.182Z,10.21
2022-11-05T08:54:21.193Z,10.25
2022-11-05T08:55:21.242Z,10.29
2022-11-05T08:56:21.189Z,10.28
2022-11-05T08:57:21.248Z,10.24
2022-11-05T08:58:21.210Z,10.28
2022-11-05T08:59:21.184Z,10.37
2022-11-05T09:00:21.233Z,10.46
2022-11-05T09:01:21.281Z,10.54
2022-11-05T09:02:21.388Z,10.57
2022-11-05T09:03:21.204Z,10.39
2022-11-05T09:04:21.253Z,10.30
2022-11-05T09:05:21.253Z,10.28
2022-11-05T09:06:21.207Z,10.34
2022-11-05T09:07:21.242Z,10.40
2022-11-05T09:08:21.214Z,10.46
2022-11-05T09:09:21.234Z,10.56
2022-11-05T09:10:21.314Z,10.64
2022-11-05T09:11:21.234Z,10.72
2022-11-05T09:12:21.266Z,10.79
2022-11-05T09:13:21.720Z,10.72
2022-11-05T09:14:21.240Z,10.78
2022-11-05T09:15:21.295Z,10.89
2022-11-05T09:16:21.258Z,10.91
2022-11-05T09:17:21.269Z,10.94
2022-11-05T09:18:21.252Z,10.85
2022-11-05T09:19:21.255Z,10.78
2022-11-05T09:20:21.275Z,10.80
2022-11-05T09:21:21.255Z,10.86
2022-11-05T09:22:21.332Z,10.93
2022-11-05T09:23:21.249Z,11.02
2022-11-05T09:24:21.263Z,11.08
2022-11-05T09:25:21.312Z,11.16
2022-11-05T09:26:21.286Z,11.22
2022-11-05T09:27:21.318Z,11.26
2022-11-05T09:28:21.307Z,11.32
2022-11-05T09:29:21.305Z,11.37
2022-11-05T09:30:21.320Z,11.39
2022-11-05T09:32:21.319Z,11.40
2022-11-05T09:33:21.300Z,11.41
2022-11-05T09:35:21.349Z,11.39
2022-11-05T09:36:21.293Z,11.38
2022-11-05T09:38:21.298Z,11.32
2022-11-05T09:39:21.310Z,11.27
2022-11-05T09:40:21.321Z,11.29
2022-11-05T09:41:21.344Z,11.36
2022-11-05T09:42:21.333Z,11.41
2022-11-05T09:43:21.318Z,11.48
2022-11-05T09:44:21.334Z,11.54
2022-11-05T09:45:21.342Z,11.59
2022-11-05T09:46:21.311Z,11.63
2022-11-05T09:47:21.351Z,11.68
2022-11-05T09:48:21.334Z,11.72
2022-11-05T09:49:21.327Z,11.77
2022-11-05T09:50:21.360Z,11.79
2022-11-05T09:51:24.146Z,11.81
2022-11-05T09:52:21.381Z,11.84
2022-11-05T09:53:21.347Z,11.87
2022-11-05T09:54:21.339Z,11.89
2022-11-05T09:55:21.393Z,11.91
2022-11-05T09:56:21.335Z,11.89
2022-11-05T09:57:21.435Z,11.72
2022-11-05T09:58:27.493Z,11.68
2022-11-05T09:59:21.360Z,11.71
2022-11-05T10:00:21.435Z,11.76
2022-11-05T10:01:21.488Z,11.83
2022-11-05T10:02:21.468Z,11.86
2022-11-05T10:03:21.382Z,11.90
2022-11-05T10:04:21.348Z,11.91
2022-11-05T10:05:21.434Z,11.89
2022-11-05T10:07:21.386Z,11.90
2022-11-05T10:08:21.360Z,11.91
2022-11-05T10:09:21.368Z,11.93
2022-11-05T10:10:21.424Z,11.98
2022-11-05T10:11:21.367Z,12.02
2022-11-05T10:12:21.373Z,12.06
2022-11-05T10:13:21.469Z,12.10
2022-11-05T10:14:21.437Z,12.13
2022-11-05T10:15:21.436Z,12.14
2022-11-05T10:16:21.385Z,12.16
2022-11-05T10:17:21.403Z,12.19
2022-11-05T10:18:21.435Z,12.20
2022-11-05T10:19:21.392Z,12.23
2022-11-05T10:20:21.494Z,12.25
2022-11-05T10:21:37.715Z,12.27
2022-11-05T10:22:21.389Z,12.30
2022-11-05T10:23:21.454Z,12.25
2022-11-05T10:24:21.411Z,12.19
2022-11-05T10:25:21.508Z,12.18
2022-11-05T10:26:21.422Z,12.22
2022-11-05T10:27:21.411Z,12.24
2022-11-05T10:28:21.478Z,12.29
2022-11-05T10:29:21.451Z,12.34
2022-11-05T10:30:21.461Z,12.37
2022-11-05T10:31:21.453Z,12.41
2022-11-05T10:32:21.439Z,12.49
2022-11-05T10:33:21.498Z,12.58
2022-11-05T10:34:21.442Z,12.65
2022-11-05T10:35:21.502Z,12.71
2022-11-05T10:36:21.439Z,12.76
2022-11-05T10:37:21.469Z,12.80
2022-11-05T10:38:21.505Z,12.83
2022-11-05T10:41:21.456Z,12.85
2022-11-05T10:42:21.459Z,12.89
2022-11-05T10:43:21.511Z,12.90
2022-11-05T10:44:21.454Z,12.89
2022-11-05T10:46:21.470Z,12.92
2022-11-05T10:47:21.464Z,12.89
2022-11-05T10:48:21.565Z,12.85
2022-11-05T10:49:21.477Z,12.87
2022-11-05T10:50:21.496Z,12.90
2022-11-05T10:51:21.478Z,12.91
2022-11-05T10:52:21.472Z,12.94
2022-11-05T10:54:21.524Z,12.95
2022-11-05T10:55:21.538Z,12.98
2022-11-05T10:56:21.486Z,13.01
2022-11-05T10:57:21.498Z,13.05
2022-11-05T10:58:21.525Z,13.10
2022-11-05T10:59:21.486Z,13.13
2022-11-05T11:00:21.519Z,13.15
2022-11-05T11:01:21.659Z,13.14
2022-11-05T11:04:21.527Z,13.12
2022-11-05T11:05:21.570Z,13.14
2022-11-05T11:06:21.555Z,13.15
2022-11-05T11:07:21.539Z,13.12
2022-11-05T11:08:21.560Z,13.10
2022-11-05T11:10:21.539Z,13.11
2022-11-05T11:11:21.601Z,13.13
2022-11-05T11:12:21.558Z,13.14
2022-11-05T11:13:21.576Z,13.16
2022-11-05T11:14:21.544Z,13.15
2022-11-05T11:15:21.570Z,13.08
2022-11-05T11:17:21.593Z,13.10
2022-11-05T11:18:21.579Z,13.15
2022-11-05T11:19:21.558Z,13.20
2022-11-05T11:20:21.573Z,13.21
2022-11-05T11:21:21.591Z,13.20
2022-11-05T11:23:21.623Z,13.19
2022-11-05T11:25:21.575Z,13.20
2022-11-05T11:27:21.577Z,13.19
2022-11-05T11:28:21.616Z,13.06
2022-11-05T11:29:21.646Z,13.03
2022-11-05T11:31:21.611Z,13.02
2022-11-05T11:32:21.581Z,13.01
2022-11-05T11:34:21.622Z,13.00
2022-11-05T11:35:21.635Z,12.98
2022-11-05T11:36:21.613Z,12.97
2022-11-05T11:37:21.600Z,12.96
2022-11-05T11:38:21.615Z,12.92
2022-11-05T11:40:21.640Z,12.93
2022-11-05T11:41:21.632Z,12.95
2022-11-05T11:42:21.604Z,12.96
2022-11-05T11:44:21.637Z,12.98
2022-11-05T11:45:21.603Z,13.02
2022-11-05T11:46:21.695Z,13.03
2022-11-05T11:47:21.604Z,13.05
2022-11-05T11:48:21.648Z,13.07
2022-11-05T11:49:21.677Z,13.10
2022-11-05T11:50:21.601Z,13.11
2022-11-05T11:51:21.635Z,13.10
2022-11-05T11:52:21.648Z,13.08
2022-11-05T11:53:21.644Z,13.05
2022-11-05T11:54:23.078Z,13.04
2022-11-05T11:57:21.696Z,13.07
2022-11-05T11:58:21.626Z,13.09
2022-11-05T11:59:30.797Z,13.00
2022-11-05T12:00:21.649Z,12.95
2022-11-05T12:02:21.857Z,12.89
2022-11-05T12:04:21.739Z,12.93
2022-11-05T12:05:21.647Z,12.99
2022-11-05T12:06:21.668Z,13.04
2022-11-05T12:07:21.694Z,13.07
2022-11-05T12:08:21.688Z,13.09
2022-11-05T12:09:21.712Z,13.11
2022-11-05T12:10:21.691Z,13.13
2022-11-05T12:11:21.683Z,13.14
2022-11-05T12:12:21.707Z,13.16
2022-11-05T12:13:21.667Z,13.20
2022-11-05T12:14:21.687Z,13.25
2022-11-05T12:15:21.683Z,13.29
2022-11-05T12:16:21.723Z,13.22
2022-11-05T12:17:21.735Z,13.24
2022-11-05T12:18:21.703Z,13.29
2022-11-05T12:19:21.693Z,13.32
2022-11-05T12:20:21.690Z,13.38
2022-11-05T12:21:41.011Z,13.27
2022-11-05T12:22:21.771Z,13.25
2022-11-05T12:23:21.713Z,13.28
2022-11-05T12:24:21.714Z,13.35
2022-11-05T12:25:21.761Z,13.40
2022-11-05T12:26:21.730Z,13.33
2022-11-05T12:27:21.756Z,13.18
2022-11-05T12:28:21.731Z,13.07
2022-11-05T12:29:21.738Z,13.01
2022-11-05T12:30:21.838Z,12.99
2022-11-05T12:31:21.743Z,13.01
2022-11-05T12:32:21.841Z,13.07
2022-11-05T12:33:21.832Z,13.15
2022-11-05T12:34:21.766Z,13.21
2022-11-05T12:35:21.799Z,13.24
2022-11-05T12:36:21.746Z,13.28
2022-11-05T12:37:21.756Z,13.31
2022-11-05T12:38:21.774Z,13.30
2022-11-05T12:40:21.805Z,13.29
2022-11-05T12:42:21.763Z,13.26
2022-11-05T12:43:21.788Z,13.24
2022-11-05T12:44:21.737Z,13.21
2022-11-05T12:45:21.805Z,13.20
2022-11-05T12:46:21.794Z,13.16
2022-11-05T12:47:21.785Z,13.10
2022-11-05T12:48:27.554Z,12.96
2022-11-05T12:49:21.773Z,12.81
2022-11-05T12:50:21.807Z,12.74
2022-11-05T12:51:21.758Z,12.71
2022-11-05T12:53:21.826Z,12.72
2022-11-05T12:54:21.801Z,12.74
2022-11-05T12:55:21.832Z,12.76
2022-11-05T12:56:21.771Z,12.78
2022-11-05T12:57:21.813Z,12.74
2022-11-05T12:58:21.859Z,12.72
2022-11-05T12:59:21.789Z,12.74
2022-11-05T13:00:21.796Z,12.77
2022-11-05T13:01:21.899Z,12.82
2022-11-05T13:02:21.878Z,12.85
2022-11-05T13:03:21.887Z,12.87
2022-11-05T13:04:21.821Z,12.89
2022-11-05T13:05:21.853Z,12.91
2022-11-05T13:06:21.797Z,12.94
2022-11-05T13:07:21.839Z,12.96
2022-11-05T13:08:21.866Z,12.97
2022-11-05T13:09:21.879Z,12.98
2022-11-05T13:11:21.841Z,12.99
2022-11-05T13:12:21.814Z,12.98
2022-11-05T13:13:21.857Z,12.97
2022-11-05T13:14:21.836Z,12.95
2022-11-05T13:15:21.847Z,12.93
2022-11-05T13:16:21.838Z,12.91
2022-11-05T13:17:21.851Z,12.90
2022-11-05T13:18:21.886Z,12.88
2022-11-05T13:19:21.865Z,12.73
2022-11-05T13:20:21.834Z,12.59
2022-11-05T13:21:21.940Z,12.41
2022-11-05T13:22:21.862Z,12.25
2022-11-05T13:23:21.908Z,12.10
2022-11-05T13:24:21.869Z,11.84
2022-11-05T13:25:21.851Z,11.41
2022-11-05T13:26:21.912Z,10.98
2022-11-05T13:27:21.886Z,10.65
2022-11-05T13:28:21.906Z,10.70
2022-11-05T13:29:21.869Z,10.85
2022-11-05T13:30:21.874Z,11.06
2022-11-05T13:31:21.911Z,11.24
2022-11-05T13:32:21.858Z,11.16
2022-11-05T13:33:21.949Z,11.08
2022-11-05T13:34:21.883Z,10.86
2022-11-05T13:35:21.880Z,10.83
2022-11-05T13:36:21.920Z,10.90
2022-11-05T13:37:21.900Z,11.02
2022-11-05T13:38:21.937Z,11.12
2022-11-05T13:39:21.928Z,11.19
2022-11-05T13:40:21.904Z,11.06
2022-11-05T13:41:21.931Z,10.98
2022-11-05T13:42:21.896Z,10.95
2022-11-05T13:43:21.947Z,11.02
2022-11-05T13:44:21.916Z,11.11
2022-11-05T13:45:21.938Z,11.12
2022-11-05T13:46:21.965Z,11.01
2022-11-05T13:47:21.911Z,10.94
2022-11-05T13:48:21.919Z,10.91
2022-11-05T13:49:21.941Z,10.80
2022-11-05T13:50:21.930Z,10.76
2022-11-05T13:51:21.991Z,10.63
2022-11-05T13:52:21.936Z,10.55
2022-11-05T13:53:21.946Z,10.43
2022-11-05T13:55:21.938Z,10.54
2022-11-05T13:56:21.967Z,10.61
2022-11-05T13:57:21.980Z,10.60
2022-11-05T13:58:21.957Z,10.67
2022-11-05T13:59:22.003Z,10.71
2022-11-05T14:00:21.932Z,10.72
2022-11-05T14:02:22.014Z,10.79
2022-11-05T14:03:21.985Z,10.90
2022-11-05T14:04:21.998Z,11.01
2022-11-05T14:05:21.958Z,11.13
2022-11-05T14:06:21.982Z,11.24
2022-11-05T14:07:21.972Z,11.32
2022-11-05T14:08:21.996Z,11.37
2022-11-05T14:09:22.035Z,11.39
2022-11-05T14:10:21.956Z,11.33
2022-11-05T14:11:21.994Z,11.31
2022-11-05T14:12:21.963Z,11.36
2022-11-05T14:13:22.003Z,11.39
2022-11-05T14:14:22.030Z,11.26
2022-11-05T14:15:22.026Z,11.02
2022-11-05T14:16:22.021Z,10.70
2022-11-05T14:17:21.983Z,10.55
2022-11-05T14:18:21.996Z,10.59
2022-11-05T14:19:22.050Z,10.66
2022-11-05T14:20:21.979Z,10.74
2022-11-05T14:21:22.063Z,10.70
2022-11-05T14:22:21.991Z,10.73
2022-11-05T14:23:22.009Z,10.84
2022-11-05T14:24:22.029Z,10.83
2022-11-05T14:25:22.004Z,10.71
2022-11-05T14:26:22.020Z,10.76
2022-11-05T14:27:22.086Z,10.92
2022-11-05T14:28:22.021Z,11.07
2022-11-05T14:29:22.093Z,11.17
2022-11-05T14:30:22.026Z,11.26
2022-11-05T14:31:25.243Z,11.19
2022-11-05T14:32:22.050Z,11.26
2022-11-05T14:33:22.054Z,11.37
2022-11-05T14:34:22.074Z,11.49
2022-11-05T14:35:22.049Z,11.59
2022-11-05T14:36:22.038Z,11.65
2022-11-05T14:37:22.067Z,11.24
2022-11-05T14:38:22.050Z,11.23
2022-11-05T14:39:22.122Z,11.27
2022-11-05T14:40:22.064Z,11.37
2022-11-05T14:41:22.048Z,11.48
2022-11-05T14:42:22.103Z,11.59
2022-11-05T14:43:22.070Z,11.67
2022-11-05T14:44:22.090Z,11.74
2022-11-05T14:45:22.093Z,11.81
2022-11-05T14:46:22.081Z,11.84
2022-11-05T14:47:22.105Z,11.87
2022-11-05T14:48:22.059Z,11.88
2022-11-05T14:49:22.126Z,11.90
2022-11-05T14:50:22.090Z,11.93
2022-11-05T14:51:22.109Z,11.95
2022-11-05T14:52:22.112Z,11.96
2022-11-05T14:54:22.104Z,11.91
2022-11-05T14:56:22.097Z,11.93
2022-11-05T14:58:22.128Z,11.94
2022-11-05T14:59:22.107Z,11.93
2022-11-05T15:00:22.070Z,11.89
2022-11-05T15:01:22.183Z,11.87
2022-11-05T15:02:22.350Z,11.89
2022-11-05T15:04:22.198Z,11.92
2022-11-05T15:05:22.132Z,11.96
2022-11-05T15:06:22.122Z,11.99
2022-11-05T15:07:22.151Z,12.01
2022-11-05T15:08:22.132Z,12.03
2022-11-05T15:09:22.131Z,11.90
2022-11-05T15:10:22.208Z,11.71
2022-11-05T15:11:22.132Z,11.69